sensor_id;sensor_type;location;lat;lon;timestamp;P1;durP1;ratioP1;P2;durP2;ratioP2
66607;SDS011;53462;39.616;8.824;2024-02-26T00:01:49;4.82;;;2.08;;
66607;SDS011;53462;39.616;8.824;2024-02-26T00:04:15;2.40;;;1.50;;
66607;SDS011;53462;39.616;8.824;2024-02-26T00:06:41;6.18;;;1.80;;
66607;SDS011;53462;39.616;8.824;2024-02-26T00:09:07;3.53;;;1.80;;
66607;SDS011;53462;39.616;8.824;2024-02-26T00:11:35;4.75;;;1.60;;
66607;SDS011;53462;39.616;8.824;2024-02-26T00:14:01;4.97;;;1.60;;
66607;SDS011;53462;39.616;8.824;2024-02-26T00:16:28;3.60;;;1.67;;
66607;SDS011;53462;39.616;8.824;2024-02-26T00:18:54;5.18;;;1.90;;
66607;SDS011;53462;39.616;8.824;2024-02-26T00:21:19;3.63;;;1.45;;
66607;SDS011;53462;39.616;8.824;2024-02-26T00:23:46;4.50;;;1.75;;
66607;SDS011;53462;39.616;8.824;2024-02-26T00:26:12;3.95;;;1.80;;
66607;SDS011;53462;39.616;8.824;2024-02-26T00:28:37;4.20;;;1.77;;
66607;SDS011;53462;39.616;8.824;2024-02-26T00:31:03;3.65;;;1.80;;
66607;SDS011;53462;39.616;8.824;2024-02-26T00:33:30;5.20;;;2.00;;
66607;SDS011;53462;39.616;8.824;2024-02-26T00:35:56;5.65;;;1.90;;
66607;SDS011;53462;39.616;8.824;2024-02-26T00:38:21;3.45;;;1.63;;
66607;SDS011;53462;39.616;8.824;2024-02-26T00:40:47;5.32;;;1.83;;
66607;SDS011;53462;39.616;8.824;2024-02-26T00:43:13;6.65;;;1.90;;
66607;SDS011;53462;39.616;8.824;2024-02-26T00:45:39;3.33;;;1.70;;
66607;SDS011;53462;39.616;8.824;2024-02-26T00:48:05;5.05;;;2.00;;
66607;SDS011;53462;39.616;8.824;2024-02-26T00:50:32;3.15;;;1.58;;
66607;SDS011;53462;39.616;8.824;2024-02-26T00:52:59;6.00;;;1.60;;
66607;SDS011;53462;39.616;8.824;2024-02-26T00:55:25;4.90;;;1.83;;
66607;SDS011;53462;39.616;8.824;2024-02-26T00:57:51;5.15;;;1.80;;
66607;SDS011;53462;39.616;8.824;2024-02-26T01:00:17;2.85;;;1.27;;
66607;SDS011;53462;39.616;8.824;2024-02-26T01:02:43;4.43;;;1.50;;
66607;SDS011;53462;39.616;8.824;2024-02-26T01:05:12;5.78;;;1.70;;
66607;SDS011;53462;39.616;8.824;2024-02-26T01:07:38;3.55;;;1.60;;
66607;SDS011;53462;39.616;8.824;2024-02-26T01:10:05;4.72;;;1.48;;
66607;SDS011;53462;39.616;8.824;2024-02-26T01:12:32;5.10;;;1.90;;
66607;SDS011;53462;39.616;8.824;2024-02-26T01:14:59;3.70;;;1.40;;
66607;SDS011;53462;39.616;8.824;2024-02-26T01:17:25;3.17;;;1.50;;
66607;SDS011;53462;39.616;8.824;2024-02-26T01:19:51;3.78;;;2.03;;
66607;SDS011;53462;39.616;8.824;2024-02-26T01:22:18;4.63;;;1.67;;
66607;SDS011;53462;39.616;8.824;2024-02-26T01:24:44;5.05;;;1.60;;
66607;SDS011;53462;39.616;8.824;2024-02-26T01:27:10;4.43;;;1.60;;
66607;SDS011;53462;39.616;8.824;2024-02-26T01:29:36;3.83;;;1.75;;
66607;SDS011;53462;39.616;8.824;2024-02-26T01:32:02;3.47;;;1.40;;
66607;SDS011;53462;39.616;8.824;2024-02-26T01:34:30;3.30;;;1.55;;
66607;SDS011;53462;39.616;8.824;2024-02-26T01:36:55;4.68;;;1.60;;
66607;SDS011;53462;39.616;8.824;2024-02-26T01:39:21;6.68;;;1.50;;
66607;SDS011;53462;39.616;8.824;2024-02-26T01:41:47;3.03;;;1.75;;
66607;SDS011;53462;39.616;8.824;2024-02-26T01:44:13;2.95;;;1.50;;
66607;SDS011;53462;39.616;8.824;2024-02-26T01:46:39;8.07;;;1.63;;
66607;SDS011;53462;39.616;8.824;2024-02-26T01:49:05;4.90;;;1.42;;
66607;SDS011;53462;39.616;8.824;2024-02-26T01:51:33;3.33;;;1.30;;
66607;SDS011;53462;39.616;8.824;2024-02-26T01:54:01;3.63;;;1.02;;
66607;SDS011;53462;39.616;8.824;2024-02-26T01:56:29;4.43;;;1.30;;
66607;SDS011;53462;39.616;8.824;2024-02-26T01:58:59;1.88;;;1.17;;
66607;SDS011;53462;39.616;8.824;2024-02-26T02:01:29;4.18;;;1.30;;
66607;SDS011;53462;39.616;8.824;2024-02-26T02:03:57;5.85;;;1.30;;
66607;SDS011;53462;39.616;8.824;2024-02-26T02:06:24;2.28;;;1.10;;
66607;SDS011;53462;39.616;8.824;2024-02-26T02:08:50;4.25;;;1.40;;
66607;SDS011;53462;39.616;8.824;2024-02-26T02:11:16;2.38;;;1.30;;
66607;SDS011;53462;39.616;8.824;2024-02-26T02:13:42;1.98;;;1.27;;
66607;SDS011;53462;39.616;8.824;2024-02-26T02:16:08;3.30;;;1.10;;
66607;SDS011;53462;39.616;8.824;2024-02-26T02:18:34;4.97;;;1.15;;
66607;SDS011;53462;39.616;8.824;2024-02-26T02:21:00;7.18;;;1.45;;
66607;SDS011;53462;39.616;8.824;2024-02-26T02:23:26;2.60;;;1.20;;
66607;SDS011;53462;39.616;8.824;2024-02-26T02:25:52;4.90;;;1.30;;
66607;SDS011;53462;39.616;8.824;2024-02-26T02:28:23;5.10;;;1.10;;
66607;SDS011;53462;39.616;8.824;2024-02-26T02:30:50;3.08;;;1.20;;
66607;SDS011;53462;39.616;8.824;2024-02-26T02:33:16;5.63;;;1.58;;
66607;SDS011;53462;39.616;8.824;2024-02-26T02:35:42;4.15;;;1.20;;
66607;SDS011;53462;39.616;8.824;2024-02-26T02:38:08;2.53;;;1.00;;
66607;SDS011;53462;39.616;8.824;2024-02-26T02:40:34;4.65;;;1.17;;
66607;SDS011;53462;39.616;8.824;2024-02-26T02:43:00;4.25;;;1.38;;
66607;SDS011;53462;39.616;8.824;2024-02-26T02:45:27;7.18;;;1.05;;
66607;SDS011;53462;39.616;8.824;2024-02-26T02:47:53;5.28;;;1.15;;
66607;SDS011;53462;39.616;8.824;2024-02-26T02:50:21;2.28;;;0.90;;
66607;SDS011;53462;39.616;8.824;2024-02-26T02:52:46;3.13;;;0.90;;
66607;SDS011;53462;39.616;8.824;2024-02-26T02:55:13;4.18;;;1.23;;
66607;SDS011;53462;39.616;8.824;2024-02-26T02:57:39;4.85;;;1.00;;
66607;SDS011;53462;39.616;8.824;2024-02-26T03:00:09;4.20;;;1.00;;
66607;SDS011;53462;39.616;8.824;2024-02-26T03:02:35;4.10;;;1.02;;
66607;SDS011;53462;39.616;8.824;2024-02-26T03:05:02;5.35;;;1.17;;
66607;SDS011;53462;39.616;8.824;2024-02-26T03:07:28;5.40;;;1.10;;
66607;SDS011;53462;39.616;8.824;2024-02-26T03:09:54;4.40;;;1.00;;
66607;SDS011;53462;39.616;8.824;2024-02-26T03:12:20;5.20;;;1.00;;
66607;SDS011;53462;39.616;8.824;2024-02-26T03:14:46;3.38;;;0.95;;
66607;SDS011;53462;39.616;8.824;2024-02-26T03:17:12;4.72;;;1.02;;
66607;SDS011;53462;39.616;8.824;2024-02-26T03:19:38;4.80;;;1.23;;
66607;SDS011;53462;39.616;8.824;2024-02-26T03:22:04;5.40;;;1.10;;
66607;SDS011;53462;39.616;8.824;2024-02-26T03:24:30;6.00;;;1.10;;
66607;SDS011;53462;39.616;8.824;2024-02-26T03:26:56;3.83;;;1.10;;
66607;SDS011;53462;39.616;8.824;2024-02-26T03:29:22;2.35;;;1.00;;
66607;SDS011;53462;39.616;8.824;2024-02-26T03:31:48;5.20;;;1.23;;
66607;SDS011;53462;39.616;8.824;2024-02-26T03:34:14;2.42;;;1.05;;
66607;SDS011;53462;39.616;8.824;2024-02-26T03:36:40;5.50;;;1.33;;
66607;SDS011;53462;39.616;8.824;2024-02-26T03:39:07;4.18;;;1.30;;
66607;SDS011;53462;39.616;8.824;2024-02-26T03:41:33;3.28;;;1.10;;
66607;SDS011;53462;39.616;8.824;2024-02-26T03:44:00;6.38;;;1.50;;
66607;SDS011;53462;39.616;8.824;2024-02-26T03:46:26;4.82;;;1.45;;
66607;SDS011;53462;39.616;8.824;2024-02-26T03:48:52;5.53;;;1.35;;
66607;SDS011;53462;39.616;8.824;2024-02-26T03:51:19;4.40;;;1.27;;
66607;SDS011;53462;39.616;8.824;2024-02-26T03:53:45;5.38;;;1.83;;
66607;SDS011;53462;39.616;8.824;2024-02-26T03:56:11;3.22;;;1.23;;
66607;SDS011;53462;39.616;8.824;2024-02-26T03:58:40;7.05;;;1.88;;
66607;SDS011;53462;39.616;8.824;2024-02-26T04:01:07;4.68;;;1.10;;
66607;SDS011;53462;39.616;8.824;2024-02-26T04:03:34;3.55;;;1.42;;
66607;SDS011;53462;39.616;8.824;2024-02-26T04:06:00;4.53;;;1.55;;
66607;SDS011;53462;39.616;8.824;2024-02-26T04:08:26;5.45;;;1.50;;
66607;SDS011;53462;39.616;8.824;2024-02-26T04:10:52;6.55;;;1.60;;
66607;SDS011;53462;39.616;8.824;2024-02-26T04:13:18;4.68;;;1.50;;
66607;SDS011;53462;39.616;8.824;2024-02-26T04:15:45;5.60;;;1.70;;
66607;SDS011;53462;39.616;8.824;2024-02-26T04:18:12;7.07;;;1.40;;
66607;SDS011;53462;39.616;8.824;2024-02-26T04:20:39;7.38;;;2.00;;
66607;SDS011;53462;39.616;8.824;2024-02-26T04:23:07;4.95;;;1.60;;
66607;SDS011;53462;39.616;8.824;2024-02-26T04:25:33;6.35;;;1.63;;
66607;SDS011;53462;39.616;8.824;2024-02-26T04:27:59;6.22;;;1.50;;
66607;SDS011;53462;39.616;8.824;2024-02-26T04:30:25;3.92;;;1.42;;
66607;SDS011;53462;39.616;8.824;2024-02-26T04:32:51;7.18;;;1.58;;
66607;SDS011;53462;39.616;8.824;2024-02-26T04:35:16;5.93;;;1.15;;
66607;SDS011;53462;39.616;8.824;2024-02-26T04:37:42;5.53;;;1.48;;
66607;SDS011;53462;39.616;8.824;2024-02-26T04:40:08;7.13;;;1.73;;
66607;SDS011;53462;39.616;8.824;2024-02-26T04:42:34;9.07;;;1.70;;
66607;SDS011;53462;39.616;8.824;2024-02-26T04:45:00;5.35;;;1.45;;
66607;SDS011;53462;39.616;8.824;2024-02-26T04:47:26;5.57;;;1.65;;
66607;SDS011;53462;39.616;8.824;2024-02-26T04:49:52;6.78;;;1.70;;
66607;SDS011;53462;39.616;8.824;2024-02-26T04:52:18;4.97;;;1.40;;
66607;SDS011;53462;39.616;8.824;2024-02-26T04:54:44;7.07;;;1.55;;
66607;SDS011;53462;39.616;8.824;2024-02-26T04:57:10;5.85;;;1.58;;
66607;SDS011;53462;39.616;8.824;2024-02-26T04:59:36;6.68;;;2.05;;
66607;SDS011;53462;39.616;8.824;2024-02-26T05:02:02;8.85;;;2.08;;
66607;SDS011;53462;39.616;8.824;2024-02-26T05:04:28;7.50;;;1.55;;
66607;SDS011;53462;39.616;8.824;2024-02-26T05:06:54;9.50;;;2.33;;
66607;SDS011;53462;39.616;8.824;2024-02-26T05:09:20;11.68;;;2.40;;
66607;SDS011;53462;39.616;8.824;2024-02-26T05:11:46;7.05;;;2.28;;
66607;SDS011;53462;39.616;8.824;2024-02-26T05:14:11;3.67;;;1.73;;
66607;SDS011;53462;39.616;8.824;2024-02-26T05:16:37;6.97;;;2.13;;
66607;SDS011;53462;39.616;8.824;2024-02-26T05:19:03;6.30;;;1.50;;
66607;SDS011;53462;39.616;8.824;2024-02-26T05:21:30;6.18;;;1.45;;
66607;SDS011;53462;39.616;8.824;2024-02-26T05:23:56;7.22;;;2.15;;
66607;SDS011;53462;39.616;8.824;2024-02-26T05:26:22;12.00;;;1.83;;
66607;SDS011;53462;39.616;8.824;2024-02-26T05:28:48;8.07;;;1.65;;
66607;SDS011;53462;39.616;8.824;2024-02-26T05:31:14;7.65;;;1.98;;
66607;SDS011;53462;39.616;8.824;2024-02-26T05:33:41;10.77;;;2.20;;
66607;SDS011;53462;39.616;8.824;2024-02-26T05:36:06;5.10;;;1.92;;
66607;SDS011;53462;39.616;8.824;2024-02-26T05:38:32;8.00;;;2.03;;
66607;SDS011;53462;39.616;8.824;2024-02-26T05:40:58;7.07;;;1.92;;
66607;SDS011;53462;39.616;8.824;2024-02-26T05:43:28;12.75;;;2.22;;
66607;SDS011;53462;39.616;8.824;2024-02-26T05:45:54;7.43;;;1.98;;
66607;SDS011;53462;39.616;8.824;2024-02-26T05:48:21;7.53;;;2.15;;
66607;SDS011;53462;39.616;8.824;2024-02-26T05:50:47;14.52;;;2.78;;
66607;SDS011;53462;39.616;8.824;2024-02-26T05:53:12;12.02;;;2.80;;
66607;SDS011;53462;39.616;8.824;2024-02-26T05:55:38;8.52;;;2.65;;
66607;SDS011;53462;39.616;8.824;2024-02-26T05:58:04;8.85;;;2.33;;
66607;SDS011;53462;39.616;8.824;2024-02-26T06:00:30;10.40;;;2.78;;
66607;SDS011;53462;39.616;8.824;2024-02-26T06:02:57;6.28;;;1.92;;
66607;SDS011;53462;39.616;8.824;2024-02-26T06:05:23;7.35;;;2.13;;
66607;SDS011;53462;39.616;8.824;2024-02-26T06:07:48;9.73;;;2.10;;
66607;SDS011;53462;39.616;8.824;2024-02-26T06:10:14;13.35;;;2.58;;
66607;SDS011;53462;39.616;8.824;2024-02-26T06:12:40;8.25;;;2.22;;
66607;SDS011;53462;39.616;8.824;2024-02-26T06:15:06;7.15;;;2.17;;
66607;SDS011;53462;39.616;8.824;2024-02-26T06:17:33;9.43;;;2.33;;
66607;SDS011;53462;39.616;8.824;2024-02-26T06:19:59;9.05;;;2.17;;
66607;SDS011;53462;39.616;8.824;2024-02-26T06:22:25;10.25;;;2.40;;
66607;SDS011;53462;39.616;8.824;2024-02-26T06:24:51;10.13;;;2.97;;
66607;SDS011;53462;39.616;8.824;2024-02-26T06:27:17;8.23;;;2.35;;
66607;SDS011;53462;39.616;8.824;2024-02-26T06:29:43;11.05;;;2.80;;
66607;SDS011;53462;39.616;8.824;2024-02-26T06:32:09;9.48;;;1.88;;
66607;SDS011;53462;39.616;8.824;2024-02-26T06:34:35;9.95;;;2.25;;
66607;SDS011;53462;39.616;8.824;2024-02-26T06:37:03;13.57;;;2.75;;
66607;SDS011;53462;39.616;8.824;2024-02-26T06:39:29;13.68;;;6.60;;
66607;SDS011;53462;39.616;8.824;2024-02-26T06:41:55;12.27;;;2.90;;
66607;SDS011;53462;39.616;8.824;2024-02-26T06:44:25;12.15;;;3.38;;
66607;SDS011;53462;39.616;8.824;2024-02-26T06:46:57;15.68;;;6.30;;
66607;SDS011;53462;39.616;8.824;2024-02-26T06:49:24;7.65;;;2.35;;
66607;SDS011;53462;39.616;8.824;2024-02-26T06:51:50;8.55;;;2.65;;
66607;SDS011;53462;39.616;8.824;2024-02-26T06:54:16;7.63;;;2.20;;
66607;SDS011;53462;39.616;8.824;2024-02-26T06:56:42;10.10;;;2.50;;
66607;SDS011;53462;39.616;8.824;2024-02-26T06:59:08;9.15;;;3.88;;
66607;SDS011;53462;39.616;8.824;2024-02-26T07:01:34;12.45;;;3.17;;
66607;SDS011;53462;39.616;8.824;2024-02-26T07:04:00;10.98;;;3.30;;
66607;SDS011;53462;39.616;8.824;2024-02-26T07:06:26;12.23;;;3.50;;
66607;SDS011;53462;39.616;8.824;2024-02-26T07:08:53;10.18;;;4.10;;
66607;SDS011;53462;39.616;8.824;2024-02-26T07:11:19;11.43;;;4.82;;
66607;SDS011;53462;39.616;8.824;2024-02-26T07:13:47;16.60;;;4.68;;
66607;SDS011;53462;39.616;8.824;2024-02-26T07:16:14;12.18;;;3.38;;
66607;SDS011;53462;39.616;8.824;2024-02-26T07:18:41;12.25;;;3.72;;
66607;SDS011;53462;39.616;8.824;2024-02-26T07:21:08;11.38;;;4.00;;
66607;SDS011;53462;39.616;8.824;2024-02-26T07:23:34;11.65;;;3.25;;
66607;SDS011;53462;39.616;8.824;2024-02-26T07:26:00;16.63;;;4.85;;
66607;SDS011;53462;39.616;8.824;2024-02-26T07:28:26;17.08;;;4.32;;
66607;SDS011;53462;39.616;8.824;2024-02-26T07:30:52;16.40;;;4.60;;
66607;SDS011;53462;39.616;8.824;2024-02-26T07:33:18;27.90;;;12.63;;
66607;SDS011;53462;39.616;8.824;2024-02-26T07:35:44;16.30;;;5.40;;
66607;SDS011;53462;39.616;8.824;2024-02-26T07:38:10;11.07;;;4.03;;
66607;SDS011;53462;39.616;8.824;2024-02-26T07:40:36;12.52;;;3.97;;
66607;SDS011;53462;39.616;8.824;2024-02-26T07:43:02;18.35;;;4.40;;
66607;SDS011;53462;39.616;8.824;2024-02-26T07:45:28;11.38;;;4.22;;
66607;SDS011;53462;39.616;8.824;2024-02-26T07:47:54;15.43;;;3.90;;
66607;SDS011;53462;39.616;8.824;2024-02-26T07:50:19;17.05;;;3.15;;
66607;SDS011;53462;39.616;8.824;2024-02-26T07:52:45;14.23;;;4.10;;
66607;SDS011;53462;39.616;8.824;2024-02-26T07:55:11;11.57;;;2.95;;
66607;SDS011;53462;39.616;8.824;2024-02-26T07:57:37;9.52;;;2.63;;
66607;SDS011;53462;39.616;8.824;2024-02-26T08:00:06;11.82;;;3.25;;
66607;SDS011;53462;39.616;8.824;2024-02-26T08:02:34;14.20;;;3.05;;
66607;SDS011;53462;39.616;8.824;2024-02-26T08:05:01;9.85;;;2.70;;
66607;SDS011;53462;39.616;8.824;2024-02-26T08:07:27;23.60;;;8.63;;
66607;SDS011;53462;39.616;8.824;2024-02-26T08:09:53;16.00;;;5.30;;
66607;SDS011;53462;39.616;8.824;2024-02-26T08:12:19;14.90;;;3.90;;
66607;SDS011;53462;39.616;8.824;2024-02-26T08:14:45;16.90;;;3.80;;
66607;SDS011;53462;39.616;8.824;2024-02-26T08:17:11;19.95;;;5.38;;
66607;SDS011;53462;39.616;8.824;2024-02-26T08:19:37;9.05;;;3.03;;
66607;SDS011;53462;39.616;8.824;2024-02-26T08:22:03;11.50;;;3.25;;
66607;SDS011;53462;39.616;8.824;2024-02-26T08:24:29;12.48;;;3.92;;
66607;SDS011;53462;39.616;8.824;2024-02-26T08:26:55;12.02;;;3.25;;
66607;SDS011;53462;39.616;8.824;2024-02-26T08:29:21;39.75;;;20.85;;
66607;SDS011;53462;39.616;8.824;2024-02-26T08:31:47;11.15;;;3.35;;
66607;SDS011;53462;39.616;8.824;2024-02-26T08:34:14;12.90;;;3.88;;
66607;SDS011;53462;39.616;8.824;2024-02-26T08:36:40;11.43;;;4.43;;
66607;SDS011;53462;39.616;8.824;2024-02-26T08:39:06;18.77;;;9.27;;
66607;SDS011;53462;39.616;8.824;2024-02-26T08:41:34;25.00;;;12.82;;
66607;SDS011;53462;39.616;8.824;2024-02-26T08:44:00;14.20;;;3.83;;
66607;SDS011;53462;39.616;8.824;2024-02-26T08:46:25;8.00;;;2.88;;
66607;SDS011;53462;39.616;8.824;2024-02-26T08:48:51;34.70;;;23.15;;
66607;SDS011;53462;39.616;8.824;2024-02-26T08:51:17;17.67;;;4.03;;
66607;SDS011;53462;39.616;8.824;2024-02-26T08:53:43;18.13;;;6.70;;
66607;SDS011;53462;39.616;8.824;2024-02-26T08:56:09;42.47;;;22.08;;
66607;SDS011;53462;39.616;8.824;2024-02-26T08:58:41;39.25;;;18.08;;
66607;SDS011;53462;39.616;8.824;2024-02-26T09:01:08;26.15;;;12.32;;
66607;SDS011;53462;39.616;8.824;2024-02-26T09:03:34;36.60;;;24.52;;
66607;SDS011;53462;39.616;8.824;2024-02-26T09:06:00;36.30;;;19.50;;
66607;SDS011;53462;39.616;8.824;2024-02-26T09:08:27;19.40;;;6.60;;
66607;SDS011;53462;39.616;8.824;2024-02-26T09:10:53;16.67;;;6.20;;
66607;SDS011;53462;39.616;8.824;2024-02-26T09:13:19;15.00;;;5.60;;
66607;SDS011;53462;39.616;8.824;2024-02-26T09:15:44;13.75;;;4.55;;
66607;SDS011;53462;39.616;8.824;2024-02-26T09:18:11;14.38;;;3.90;;
66607;SDS011;53462;39.616;8.824;2024-02-26T09:20:36;20.00;;;3.20;;
66607;SDS011;53462;39.616;8.824;2024-02-26T09:23:02;12.95;;;2.65;;
66607;SDS011;53462;39.616;8.824;2024-02-26T09:25:28;16.08;;;3.80;;
66607;SDS011;53462;39.616;8.824;2024-02-26T09:27:54;22.13;;;6.47;;
66607;SDS011;53462;39.616;8.824;2024-02-26T09:30:20;20.92;;;5.38;;
66607;SDS011;53462;39.616;8.824;2024-02-26T09:32:46;20.33;;;7.07;;
66607;SDS011;53462;39.616;8.824;2024-02-26T09:35:15;14.98;;;3.83;;
66607;SDS011;53462;39.616;8.824;2024-02-26T09:37:41;13.50;;;3.70;;
66607;SDS011;53462;39.616;8.824;2024-02-26T09:40:09;15.82;;;5.45;;
66607;SDS011;53462;39.616;8.824;2024-02-26T09:42:41;18.50;;;4.70;;
66607;SDS011;53462;39.616;8.824;2024-02-26T09:45:10;19.38;;;6.60;;
66607;SDS011;53462;39.616;8.824;2024-02-26T09:47:42;28.42;;;11.70;;
66607;SDS011;53462;39.616;8.824;2024-02-26T09:50:09;25.35;;;10.05;;
66607;SDS011;53462;39.616;8.824;2024-02-26T09:52:38;22.95;;;7.05;;
66607;SDS011;53462;39.616;8.824;2024-02-26T09:55:07;12.68;;;3.85;;
66607;SDS011;53462;39.616;8.824;2024-02-26T09:57:37;16.65;;;3.42;;
66607;SDS011;53462;39.616;8.824;2024-02-26T10:00:03;12.43;;;2.65;;
66607;SDS011;53462;39.616;8.824;2024-02-26T10:02:33;14.70;;;3.22;;
66607;SDS011;53462;39.616;8.824;2024-02-26T10:05:02;15.68;;;3.63;;
66607;SDS011;53462;39.616;8.824;2024-02-26T10:07:33;10.82;;;2.60;;
66607;SDS011;53462;39.616;8.824;2024-02-26T10:10:01;13.55;;;2.97;;
66607;SDS011;53462;39.616;8.824;2024-02-26T10:12:27;13.63;;;2.45;;
66607;SDS011;53462;39.616;8.824;2024-02-26T10:14:54;15.20;;;3.60;;
66607;SDS011;53462;39.616;8.824;2024-02-26T10:17:20;14.20;;;4.20;;
66607;SDS011;53462;39.616;8.824;2024-02-26T10:19:46;12.65;;;3.15;;
66607;SDS011;53462;39.616;8.824;2024-02-26T10:22:12;15.30;;;4.70;;
66607;SDS011;53462;39.616;8.824;2024-02-26T10:24:38;12.95;;;3.22;;
66607;SDS011;53462;39.616;8.824;2024-02-26T10:27:04;11.13;;;2.13;;
66607;SDS011;53462;39.616;8.824;2024-02-26T10:29:30;13.85;;;2.72;;
66607;SDS011;53462;39.616;8.824;2024-02-26T10:31:56;8.52;;;2.20;;
66607;SDS011;53462;39.616;8.824;2024-02-26T10:34:22;11.18;;;2.40;;
66607;SDS011;53462;39.616;8.824;2024-02-26T10:36:49;11.18;;;2.35;;
66607;SDS011;53462;39.616;8.824;2024-02-26T10:39:15;10.68;;;2.30;;
66607;SDS011;53462;39.616;8.824;2024-02-26T10:41:42;10.93;;;3.22;;
66607;SDS011;53462;39.616;8.824;2024-02-26T10:44:09;8.93;;;2.30;;
66607;SDS011;53462;39.616;8.824;2024-02-26T10:46:41;9.15;;;2.75;;
66607;SDS011;53462;39.616;8.824;2024-02-26T10:49:14;11.70;;;2.45;;
66607;SDS011;53462;39.616;8.824;2024-02-26T10:51:43;13.43;;;2.30;;
66607;SDS011;53462;39.616;8.824;2024-02-26T10:54:12;14.00;;;2.10;;
66607;SDS011;53462;39.616;8.824;2024-02-26T10:56:41;15.32;;;2.55;;
66607;SDS011;53462;39.616;8.824;2024-02-26T10:59:11;13.13;;;2.40;;
66607;SDS011;53462;39.616;8.824;2024-02-26T11:01:37;15.00;;;2.83;;
66607;SDS011;53462;39.616;8.824;2024-02-26T11:04:06;22.90;;;2.72;;
66607;SDS011;53462;39.616;8.824;2024-02-26T11:06:34;17.45;;;3.03;;
66607;SDS011;53462;39.616;8.824;2024-02-26T11:09:01;17.13;;;2.60;;
66607;SDS011;53462;39.616;8.824;2024-02-26T11:11:28;14.38;;;2.22;;
66607;SDS011;53462;39.616;8.824;2024-02-26T11:13:57;18.90;;;3.13;;
66607;SDS011;53462;39.616;8.824;2024-02-26T11:16:24;11.20;;;2.50;;
66607;SDS011;53462;39.616;8.824;2024-02-26T11:18:53;10.98;;;2.25;;
66607;SDS011;53462;39.616;8.824;2024-02-26T11:21:20;25.98;;;5.32;;
66607;SDS011;53462;39.616;8.824;2024-02-26T11:24:04;28.25;;;3.65;;
66607;SDS011;53462;39.616;8.824;2024-02-26T11:26:38;19.17;;;3.55;;
66607;SDS011;53462;39.616;8.824;2024-02-26T11:31:38;20.67;;;3.25;;
66607;SDS011;53462;39.616;8.824;2024-02-26T11:34:06;22.50;;;3.15;;
66607;SDS011;53462;39.616;8.824;2024-02-26T11:36:34;23.60;;;3.35;;
66607;SDS011;53462;39.616;8.824;2024-02-26T11:39:01;27.17;;;3.65;;
66607;SDS011;53462;39.616;8.824;2024-02-26T11:41:29;24.52;;;3.42;;
66607;SDS011;53462;39.616;8.824;2024-02-26T11:43:59;19.25;;;2.65;;
66607;SDS011;53462;39.616;8.824;2024-02-26T11:46:27;19.65;;;2.75;;
66607;SDS011;53462;39.616;8.824;2024-02-26T11:49:00;16.40;;;3.22;;
66607;SDS011;53462;39.616;8.824;2024-02-26T11:51:28;17.13;;;2.75;;
66607;SDS011;53462;39.616;8.824;2024-02-26T11:53:58;24.45;;;3.50;;
66607;SDS011;53462;39.616;8.824;2024-02-26T11:56:24;20.88;;;3.03;;
66607;SDS011;53462;39.616;8.824;2024-02-26T11:59:04;22.88;;;3.17;;
66607;SDS011;53462;39.616;8.824;2024-02-26T12:01:38;16.92;;;2.63;;
66607;SDS011;53462;39.616;8.824;2024-02-26T12:04:13;17.67;;;3.33;;
66607;SDS011;53462;39.616;8.824;2024-02-26T12:06:54;18.70;;;3.05;;
66607;SDS011;53462;39.616;8.824;2024-02-26T12:09:38;22.60;;;2.92;;
66607;SDS011;53462;39.616;8.824;2024-02-26T12:12:06;25.98;;;3.55;;
66607;SDS011;53462;39.616;8.824;2024-02-26T12:14:39;21.23;;;2.60;;
66607;SDS011;53462;39.616;8.824;2024-02-26T12:17:19;24.67;;;3.47;;
66607;SDS011;53462;39.616;8.824;2024-02-26T12:19:49;25.17;;;3.70;;
66607;SDS011;53462;39.616;8.824;2024-02-26T12:22:19;19.60;;;2.67;;
66607;SDS011;53462;39.616;8.824;2024-02-26T12:24:45;16.85;;;2.88;;
66607;SDS011;53462;39.616;8.824;2024-02-26T12:27:11;17.20;;;2.60;;
66607;SDS011;53462;39.616;8.824;2024-02-26T12:29:37;18.52;;;3.42;;
66607;SDS011;53462;39.616;8.824;2024-02-26T12:32:04;21.33;;;3.20;;
66607;SDS011;53462;39.616;8.824;2024-02-26T12:34:30;19.38;;;2.75;;
66607;SDS011;53462;39.616;8.824;2024-02-26T12:36:56;20.23;;;2.88;;
66607;SDS011;53462;39.616;8.824;2024-02-26T12:39:23;20.38;;;3.05;;
66607;SDS011;53462;39.616;8.824;2024-02-26T12:41:49;13.32;;;2.30;;
66607;SDS011;53462;39.616;8.824;2024-02-26T12:44:17;18.35;;;2.58;;
66607;SDS011;53462;39.616;8.824;2024-02-26T12:46:43;16.45;;;2.42;;
66607;SDS011;53462;39.616;8.824;2024-02-26T12:49:09;17.60;;;3.28;;
66607;SDS011;53462;39.616;8.824;2024-02-26T12:51:41;19.60;;;3.75;;
66607;SDS011;53462;39.616;8.824;2024-02-26T12:54:07;18.92;;;2.72;;
66607;SDS011;53462;39.616;8.824;2024-02-26T12:56:34;15.13;;;2.65;;
66607;SDS011;53462;39.616;8.824;2024-02-26T12:59:00;21.35;;;3.03;;
66607;SDS011;53462;39.616;8.824;2024-02-26T13:01:26;16.23;;;2.67;;
66607;SDS011;53462;39.616;8.824;2024-02-26T13:03:53;15.27;;;2.53;;
66607;SDS011;53462;39.616;8.824;2024-02-26T13:06:20;14.15;;;2.17;;
66607;SDS011;53462;39.616;8.824;2024-02-26T13:08:47;17.38;;;3.13;;
66607;SDS011;53462;39.616;8.824;2024-02-26T13:11:13;16.98;;;2.65;;
66607;SDS011;53462;39.616;8.824;2024-02-26T13:13:39;15.63;;;2.65;;
66607;SDS011;53462;39.616;8.824;2024-02-26T13:16:06;13.85;;;2.67;;
66607;SDS011;53462;39.616;8.824;2024-02-26T13:18:34;11.52;;;2.53;;
66607;SDS011;53462;39.616;8.824;2024-02-26T13:21:11;19.58;;;2.90;;
66607;SDS011;53462;39.616;8.824;2024-02-26T13:23:42;13.48;;;2.42;;
66607;SDS011;53462;39.616;8.824;2024-02-26T13:26:11;15.27;;;2.28;;
66607;SDS011;53462;39.616;8.824;2024-02-26T13:28:40;15.43;;;2.45;;
66607;SDS011;53462;39.616;8.824;2024-02-26T13:31:06;18.50;;;2.47;;
66607;SDS011;53462;39.616;8.824;2024-02-26T13:33:34;11.63;;;2.40;;
66607;SDS011;53462;39.616;8.824;2024-02-26T13:36:00;17.38;;;2.58;;
66607;SDS011;53462;39.616;8.824;2024-02-26T13:38:27;15.73;;;2.97;;
66607;SDS011;53462;39.616;8.824;2024-02-26T13:40:56;20.92;;;3.50;;
66607;SDS011;53462;39.616;8.824;2024-02-26T13:43:23;12.45;;;2.05;;
66607;SDS011;53462;39.616;8.824;2024-02-26T13:45:48;16.05;;;2.25;;
66607;SDS011;53462;39.616;8.824;2024-02-26T13:48:15;14.20;;;2.22;;
66607;SDS011;53462;39.616;8.824;2024-02-26T13:50:41;14.73;;;2.45;;
66607;SDS011;53462;39.616;8.824;2024-02-26T13:53:08;17.52;;;2.50;;
66607;SDS011;53462;39.616;8.824;2024-02-26T13:55:34;17.95;;;2.97;;
66607;SDS011;53462;39.616;8.824;2024-02-26T13:58:01;17.52;;;2.95;;
66607;SDS011;53462;39.616;8.824;2024-02-26T14:00:29;23.30;;;2.75;;
66607;SDS011;53462;39.616;8.824;2024-02-26T14:03:01;18.77;;;2.90;;
66607;SDS011;53462;39.616;8.824;2024-02-26T14:05:28;18.10;;;2.65;;
66607;SDS011;53462;39.616;8.824;2024-02-26T14:07:55;21.10;;;3.33;;
66607;SDS011;53462;39.616;8.824;2024-02-26T14:10:21;18.42;;;2.65;;
66607;SDS011;53462;39.616;8.824;2024-02-26T14:12:46;17.83;;;3.00;;
66607;SDS011;53462;39.616;8.824;2024-02-26T14:15:12;15.43;;;2.72;;
66607;SDS011;53462;39.616;8.824;2024-02-26T14:17:38;20.80;;;3.78;;
66607;SDS011;53462;39.616;8.824;2024-02-26T14:20:04;13.73;;;2.85;;
66607;SDS011;53462;39.616;8.824;2024-02-26T14:22:31;16.30;;;2.88;;
66607;SDS011;53462;39.616;8.824;2024-02-26T14:24:57;18.63;;;2.83;;
66607;SDS011;53462;39.616;8.824;2024-02-26T14:27:23;18.20;;;2.50;;
66607;SDS011;53462;39.616;8.824;2024-02-26T14:29:49;17.63;;;2.45;;
66607;SDS011;53462;39.616;8.824;2024-02-26T14:32:15;13.77;;;2.45;;
66607;SDS011;53462;39.616;8.824;2024-02-26T14:34:41;22.83;;;2.67;;
66607;SDS011;53462;39.616;8.824;2024-02-26T14:37:07;18.55;;;3.20;;
66607;SDS011;53462;39.616;8.824;2024-02-26T14:39:33;19.75;;;2.38;;
66607;SDS011;53462;39.616;8.824;2024-02-26T14:41:59;17.38;;;2.40;;